Manage, Belgium
Current Conditions -  °F | °C
As of 8:50 PM on Saturday 20 Dec 2014 (Local Time) from EBCI Reporting Station
Scattered Clouds Scattered Clouds  
Wind Chill: 37°   Ceiling: Unl
Heat Index: 43°   Visibility: 6mi
Dew Point: 37°   Wind: 9mph
Humidity: 81%   Direction: 270°W
Pressure: 30.36"   Gusts: NA
Location:  50.5°N, 4.24°E
Report Text: EBCI 201950Z 27008KT 230V290 9999 FEW012 SCT027 06/03 Q1028 NOSIG
Loading
Personal Weather Stations






























Interactive Weather Map New forecast layout! Learn more

10-Day Weather Forecast

Advertisements
Track Severe Weather on mobile